createdAt,value
2022-10-10T00:00:34.005Z,100.00
2022-10-10T00:05:40.122Z,100.00
2022-10-10T00:10:42.000Z,100.00
2022-10-10T00:15:48.067Z,100.00
2022-10-10T00:20:52.695Z,100.00
2022-10-10T00:25:54.740Z,100.00
2022-10-10T00:30:56.534Z,100.00
2022-10-10T00:35:59.622Z,100.00
2022-10-10T00:41:02.150Z,100.00
2022-10-10T00:46:04.418Z,100.00
2022-10-10T00:51:10.168Z,100.00
2022-10-10T00:56:14.013Z,100.00
2022-10-10T01:01:15.985Z,100.00
2022-10-10T01:06:17.708Z,100.00
2022-10-10T01:11:22.340Z,100.00
2022-10-10T01:16:29.702Z,100.00
2022-10-10T01:21:51.025Z,100.00
2022-10-10T01:27:19.019Z,100.00
2022-10-10T01:32:29.515Z,100.00
2022-10-10T01:37:46.136Z,100.00
2022-10-10T01:42:53.325Z,100.00
2022-10-10T01:48:16.352Z,100.00
2022-10-10T01:53:39.189Z,100.00
2022-10-10T01:59:03.728Z,100.00
2022-10-10T02:04:15.821Z,100.00
2022-10-10T02:09:23.274Z,100.00
2022-10-10T02:14:31.454Z,100.00
2022-10-10T02:19:34.563Z,100.00
2022-10-10T02:24:36.614Z,100.00
2022-10-10T02:29:48.813Z,100.00
2022-10-10T02:35:17.289Z,100.00
2022-10-10T02:40:28.977Z,100.00
2022-10-10T02:45:33.352Z,100.00
2022-10-10T02:50:35.688Z,100.00
2022-10-10T02:55:37.966Z,100.00
2022-10-10T03:00:39.781Z,100.00
2022-10-10T03:05:42.074Z,100.00
2022-10-10T03:10:58.882Z,100.00
2022-10-10T03:16:00.615Z,100.00
2022-10-10T03:21:08.895Z,100.00
2022-10-10T03:26:10.818Z,100.00
2022-10-10T03:31:12.612Z,100.00
2022-10-10T03:36:14.714Z,100.00
2022-10-10T03:41:16.503Z,100.00
2022-10-10T03:46:18.357Z,100.00
2022-10-10T03:51:20.287Z,100.00
2022-10-10T03:56:22.068Z,100.00
2022-10-10T04:01:23.933Z,100.00
2022-10-10T04:06:26.056Z,100.00
2022-10-10T04:11:27.977Z,100.00
2022-10-10T04:16:29.649Z,100.00
2022-10-10T04:21:31.709Z,100.00
2022-10-10T04:26:33.465Z,100.00
2022-10-10T04:31:35.737Z,100.00
2022-10-10T04:36:37.450Z,100.00
2022-10-10T04:41:39.262Z,100.00
2022-10-10T04:46:41.119Z,100.00
2022-10-10T04:51:43.000Z,100.00
2022-10-10T04:56:46.010Z,100.00
2022-10-10T05:02:11.166Z,100.00
2022-10-10T05:07:26.528Z,100.00
2022-10-10T05:12:28.324Z,100.00
2022-10-10T05:17:34.264Z,100.00
2022-10-10T05:22:36.190Z,100.00
2022-10-10T05:27:38.113Z,100.00
2022-10-10T05:32:39.829Z,100.00
2022-10-10T05:37:41.635Z,100.00
2022-10-10T05:42:46.768Z,100.00
2022-10-10T05:47:48.478Z,100.00
2022-10-10T05:52:51.528Z,100.00
2022-10-10T05:57:54.257Z,100.00
2022-10-10T06:02:58.523Z,100.00
2022-10-10T06:08:07.822Z,100.00
2022-10-10T06:13:23.845Z,100.00
2022-10-10T06:18:26.495Z,100.00
2022-10-10T06:23:29.328Z,100.00
2022-10-10T06:28:31.414Z,100.00
2022-10-10T06:33:33.518Z,100.00
2022-10-10T06:38:39.412Z,100.00
2022-10-10T06:43:41.723Z,100.00
2022-10-10T06:48:43.998Z,100.00
2022-10-10T06:53:46.551Z,100.00
2022-10-10T06:58:49.056Z,100.00
2022-10-10T07:03:50.917Z,100.00
2022-10-10T07:08:52.632Z,100.00
2022-10-10T07:13:54.535Z,100.00
2022-10-10T07:18:56.200Z,100.00
2022-10-10T07:23:58.447Z,100.00
2022-10-10T07:29:00.371Z,100.00
2022-10-10T07:34:02.761Z,100.00
2022-10-10T07:39:04.481Z,100.00
2022-10-10T07:44:30.189Z,100.00
2022-10-10T07:49:43.389Z,100.00
2022-10-10T07:54:45.060Z,100.00
2022-10-10T07:59:47.001Z,100.00
2022-10-10T08:05:09.163Z,100.00
2022-10-10T08:10:23.293Z,100.00
2022-10-10T08:15:26.897Z,100.00
2022-10-10T08:20:30.832Z,100.00
2022-10-10T08:25:33.583Z,100.00
2022-10-10T08:30:41.114Z,100.00
2022-10-10T08:35:43.102Z,100.00
2022-10-10T08:40:57.563Z,100.00
2022-10-10T08:46:06.552Z,100.00
2022-10-10T08:51:14.822Z,100.00
2022-10-10T08:56:23.620Z,100.00
2022-10-10T09:01:33.799Z,100.00
2022-10-10T09:06:53.724Z,100.00
2022-10-10T09:12:14.535Z,100.00
2022-10-10T09:17:38.102Z,100.00
2022-10-10T09:22:53.183Z,100.00
2022-10-10T09:28:03.553Z,100.00
2022-10-10T09:33:23.572Z,100.00
2022-10-10T09:38:37.541Z,100.00
2022-10-10T09:43:41.039Z,100.00
2022-10-10T09:48:43.232Z,100.00
2022-10-10T09:53:47.597Z,100.00
2022-10-10T09:58:51.982Z,100.00
2022-10-10T10:04:30.131Z,100.00
2022-10-10T10:09:32.153Z,100.00
2022-10-10T10:14:38.812Z,100.00
2022-10-10T10:19:43.970Z,100.00
2022-10-10T10:24:45.847Z,100.00
2022-10-10T10:29:53.121Z,100.00
2022-10-10T10:35:07.965Z,100.00
2022-10-10T10:40:25.139Z,100.00
2022-10-10T10:45:45.514Z,100.00
2022-10-10T10:51:29.567Z,100.00
2022-10-10T10:56:46.404Z,100.00
2022-10-10T11:02:11.498Z,100.00
2022-10-10T11:07:22.523Z,100.00
2022-10-10T11:12:43.555Z,100.00
2022-10-10T11:17:51.279Z,100.00
2022-10-10T11:23:08.670Z,100.00
2022-10-10T11:28:22.390Z,100.00
2022-10-10T11:33:30.770Z,100.00
2022-10-10T11:38:59.789Z,100.00
2022-10-10T11:44:19.108Z,100.00
2022-10-10T11:49:42.640Z,100.00
2022-10-10T11:55:37.591Z,100.00
2022-10-10T12:00:46.124Z,100.00
2022-10-10T12:05:53.074Z,100.00
2022-10-10T12:11:05.699Z,100.00
2022-10-10T12:16:43.122Z,100.00
2022-10-10T12:22:09.095Z,100.00
2022-10-10T12:27:27.472Z,100.00
2022-10-10T12:32:43.671Z,100.00
2022-10-10T12:38:05.984Z,100.00
2022-10-10T12:43:26.190Z,81.89
2022-10-10T12:48:27.973Z,76.33
2022-10-10T12:53:33.399Z,75.32
2022-10-10T12:58:39.368Z,75.04
2022-10-10T13:04:02.245Z,73.40
2022-10-10T13:09:18.417Z,73.38
2022-10-10T13:14:21.069Z,73.76
2022-10-10T13:19:25.163Z,72.56
2022-10-10T13:24:31.983Z,73.02
2022-10-10T13:29:36.015Z,74.03
2022-10-10T13:34:42.499Z,73.91
2022-10-10T13:40:03.150Z,73.10
2022-10-10T13:45:30.282Z,73.42
2022-10-10T13:50:44.705Z,70.87
2022-10-10T13:55:59.993Z,71.69
2022-10-10T14:01:04.328Z,71.32
2022-10-10T14:06:08.009Z,72.15
2022-10-10T14:11:17.800Z,72.61
2022-10-10T14:16:20.170Z,73.65
2022-10-10T14:21:23.028Z,73.83
2022-10-10T14:26:25.137Z,73.60
2022-10-10T14:31:28.941Z,73.76
2022-10-10T14:36:30.826Z,74.48
2022-10-10T14:41:32.682Z,74.81
2022-10-10T14:46:35.015Z,75.40
2022-10-10T14:51:38.612Z,74.99
2022-10-10T14:57:08.237Z,76.90
2022-10-10T15:02:06.578Z,78.32
2022-10-10T15:07:14.365Z,77.54
2022-10-10T15:12:18.413Z,76.92
2022-10-10T15:17:20.319Z,76.84
2022-10-10T15:22:30.247Z,77.32
2022-10-10T15:27:32.835Z,78.29
2022-10-10T15:32:41.323Z,79.41
2022-10-10T15:37:43.613Z,80.85
2022-10-10T15:42:46.382Z,82.22
2022-10-10T15:47:48.326Z,83.87
2022-10-10T15:52:50.081Z,85.50
2022-10-10T15:57:51.792Z,87.81
2022-10-10T16:02:53.620Z,89.85
2022-10-10T16:08:07.516Z,91.84
2022-10-10T16:13:10.783Z,94.52
2022-10-10T16:18:12.696Z,96.73
2022-10-10T16:23:14.707Z,99.14
2022-10-10T16:28:16.667Z,100.00
2022-10-10T16:33:20.350Z,100.00
2022-10-10T16:38:22.047Z,100.00
2022-10-10T16:43:23.861Z,100.00
2022-10-10T16:48:25.765Z,100.00
2022-10-10T16:53:27.955Z,100.00
2022-10-10T16:58:30.011Z,100.00
2022-10-10T17:03:31.812Z,100.00
2022-10-10T17:08:34.197Z,100.00
2022-10-10T17:13:43.092Z,100.00
2022-10-10T17:18:44.946Z,100.00
2022-10-10T17:23:47.777Z,100.00
2022-10-10T17:28:50.417Z,100.00
2022-10-10T17:33:54.397Z,100.00
2022-10-10T17:39:03.795Z,100.00
2022-10-10T17:44:10.256Z,100.00
2022-10-10T17:49:12.421Z,100.00
2022-10-10T17:54:14.418Z,100.00
2022-10-10T17:59:16.156Z,100.00
2022-10-10T18:04:17.885Z,100.00
2022-10-10T18:09:20.176Z,100.00
2022-10-10T18:14:22.481Z,100.00
2022-10-10T18:19:24.823Z,100.00
2022-10-10T18:24:26.934Z,100.00
2022-10-10T18:29:28.746Z,100.00
2022-10-10T18:34:30.587Z,100.00
2022-10-10T18:39:35.636Z,100.00
2022-10-10T18:44:37.371Z,100.00
2022-10-10T18:49:39.087Z,100.00
2022-10-10T18:54:41.229Z,100.00
2022-10-10T18:59:43.250Z,100.00
2022-10-10T19:04:47.998Z,100.00
2022-10-10T19:09:50.112Z,100.00
2022-10-10T19:14:52.009Z,100.00
2022-10-10T19:19:53.909Z,100.00
2022-10-10T19:24:56.512Z,100.00
2022-10-10T19:29:59.330Z,100.00
2022-10-10T19:35:01.311Z,100.00
2022-10-10T19:40:03.566Z,100.00
2022-10-10T19:45:15.327Z,100.00
2022-10-10T19:50:26.421Z,100.00
2022-10-10T19:55:28.617Z,100.00
2022-10-10T20:00:30.532Z,100.00
2022-10-10T20:05:32.223Z,100.00
2022-10-10T20:10:34.332Z,100.00
2022-10-10T20:15:43.136Z,100.00
2022-10-10T20:20:48.326Z,100.00
2022-10-10T20:25:50.900Z,100.00
2022-10-10T20:30:53.951Z,100.00
2022-10-10T20:35:56.285Z,100.00
2022-10-10T20:41:05.413Z,100.00
2022-10-10T20:46:08.979Z,100.00
2022-10-10T20:51:13.649Z,100.00
2022-10-10T20:56:15.380Z,100.00
2022-10-10T21:01:21.330Z,100.00
2022-10-10T21:06:27.285Z,100.00
2022-10-10T21:11:29.038Z,100.00
2022-10-10T21:16:33.991Z,100.00
2022-10-10T21:21:38.382Z,100.00
2022-10-10T21:26:42.002Z,100.00
2022-10-10T21:31:43.922Z,100.00
2022-10-10T21:36:54.783Z,100.00
2022-10-10T21:41:56.486Z,100.00
2022-10-10T21:46:58.313Z,100.00
2022-10-10T21:52:00.373Z,100.00
2022-10-10T21:57:02.078Z,100.00
2022-10-10T22:02:03.948Z,100.00
2022-10-10T22:07:05.643Z,100.00
2022-10-10T22:12:27.262Z,100.00
2022-10-10T22:17:37.171Z,100.00
2022-10-10T22:22:41.359Z,100.00
2022-10-10T22:27:44.097Z,100.00
2022-10-10T22:32:45.893Z,100.00
2022-10-10T22:37:47.730Z,100.00
2022-10-10T22:42:50.156Z,100.00
2022-10-10T22:47:51.955Z,100.00
2022-10-10T22:52:53.775Z,100.00
2022-10-10T22:57:55.545Z,100.00
2022-10-10T23:02:58.464Z,100.00
2022-10-10T23:08:00.488Z,100.00
2022-10-10T23:13:09.559Z,100.00
2022-10-10T23:18:11.633Z,100.00
2022-10-10T23:23:14.127Z,100.00
2022-10-10T23:28:17.450Z,100.00
2022-10-10T23:33:19.276Z,100.00
2022-10-10T23:38:20.956Z,100.00
2022-10-10T23:43:23.924Z,100.00
2022-10-10T23:48:25.747Z,100.00
2022-10-10T23:53:27.609Z,100.00
2022-10-10T23:58:29.326Z,100.00
